createdAt,value
2018-12-21T00:00:55.688Z,35.10
2018-12-21T00:03:24.989Z,35.20
2018-12-21T00:05:54.231Z,35.30
2018-12-21T00:08:23.543Z,35.30
2018-12-21T00:10:52.850Z,35.30
2018-12-21T00:13:22.175Z,35.30
2018-12-21T00:15:51.669Z,35.20
2018-12-21T00:18:20.990Z,35.30
2018-12-21T00:20:50.360Z,35.20
2018-12-21T00:23:19.691Z,35.10
2018-12-21T00:25:49.161Z,35.30
2018-12-21T00:28:18.423Z,35.30
2018-12-21T00:30:46.887Z,35.40
2018-12-21T00:33:21.611Z,35.30
2018-12-21T00:35:56.129Z,35.20
2018-12-21T00:38:30.794Z,35.30
2018-12-21T00:41:05.419Z,35.30
2018-12-21T00:43:40.930Z,35.30
2018-12-21T00:46:17.296Z,35.20
2018-12-21T00:48:46.784Z,35.30
2018-12-21T00:51:16.099Z,35.30
2018-12-21T00:53:45.403Z,35.30
2018-12-21T00:56:14.732Z,35.20
2018-12-21T00:58:44.063Z,35.20
2018-12-21T01:01:13.424Z,35.30
2018-12-21T01:03:42.735Z,35.30
2018-12-21T01:06:12.114Z,35.30
2018-12-21T01:08:41.487Z,35.00
2018-12-21T01:11:10.836Z,35.20
2018-12-21T01:13:40.228Z,34.90
2018-12-21T01:16:09.634Z,35.30
2018-12-21T01:18:38.973Z,35.30
2018-12-21T01:21:10.380Z,35.30
2018-12-21T01:23:39.960Z,35.30
2018-12-21T01:26:09.420Z,35.20
2018-12-21T01:28:38.771Z,35.30
2018-12-21T01:31:08.051Z,35.30
2018-12-21T01:33:37.471Z,35.40
2018-12-21T01:36:06.944Z,35.20
2018-12-21T01:38:36.236Z,35.30
2018-12-21T01:41:05.820Z,35.20
2018-12-21T01:43:35.235Z,35.20
2018-12-21T01:46:04.502Z,35.10
2018-12-21T01:48:33.769Z,35.10
2018-12-21T01:51:03.110Z,35.10
2018-12-21T01:53:32.534Z,35.10
2018-12-21T01:56:01.832Z,35.00
2018-12-21T01:58:31.064Z,35.20
2018-12-21T02:01:00.336Z,35.20
2018-12-21T02:03:29.614Z,35.30
2018-12-21T02:05:59.012Z,35.30
2018-12-21T02:08:28.213Z,35.30
2018-12-21T02:10:57.670Z,35.20
2018-12-21T02:13:27.179Z,35.20
2018-12-21T02:15:56.556Z,35.40
2018-12-21T02:18:26.132Z,35.30
2018-12-21T02:20:55.491Z,35.30
2018-12-21T02:23:24.718Z,35.10
2018-12-21T02:25:53.984Z,35.30
2018-12-21T02:28:23.294Z,35.40
2018-12-21T02:30:52.576Z,35.30
2018-12-21T02:33:22.075Z,35.40
2018-12-21T02:35:51.311Z,35.10
2018-12-21T02:38:20.512Z,35.30
2018-12-21T02:40:49.773Z,35.30
2018-12-21T02:43:19.055Z,35.30
2018-12-21T02:45:48.375Z,35.40
2018-12-21T02:48:17.983Z,35.60
2018-12-21T02:50:47.292Z,35.40
2018-12-21T02:53:16.557Z,35.40
2018-12-21T02:55:45.889Z,35.40
2018-12-21T02:58:15.292Z,35.60
2018-12-21T03:00:44.553Z,35.40
2018-12-21T03:03:13.852Z,35.50
2018-12-21T03:05:43.172Z,35.30
2018-12-21T03:08:12.449Z,35.40
2018-12-21T03:10:41.721Z,35.40
2018-12-21T03:13:10.908Z,35.30
2018-12-21T03:15:40.282Z,35.40
2018-12-21T03:18:09.630Z,35.40
2018-12-21T03:20:38.987Z,35.40
2018-12-21T03:23:08.294Z,35.30
2018-12-21T03:25:37.676Z,35.30
2018-12-21T03:28:07.095Z,34.70
2018-12-21T03:30:36.440Z,35.40
2018-12-21T03:33:06.835Z,35.50
2018-12-21T03:35:36.120Z,35.10
2018-12-21T03:38:05.355Z,35.50
2018-12-21T03:40:35.344Z,35.50
2018-12-21T03:43:04.581Z,35.50
2018-12-21T03:45:33.787Z,35.50
2018-12-21T03:48:03.076Z,35.20
2018-12-21T03:50:32.391Z,35.50
2018-12-21T03:53:01.706Z,35.10
2018-12-21T03:55:30.967Z,35.40
2018-12-21T03:58:00.305Z,35.40
2018-12-21T04:00:29.689Z,35.40
2018-12-21T04:02:59.031Z,35.50
2018-12-21T04:05:28.484Z,35.50
2018-12-21T04:07:58.061Z,35.40
2018-12-21T04:10:27.320Z,35.50
2018-12-21T04:12:57.628Z,35.50
2018-12-21T04:15:27.024Z,35.50
2018-12-21T04:17:56.535Z,35.50
2018-12-21T04:20:25.859Z,35.50
2018-12-21T04:22:57.284Z,35.50
2018-12-21T04:25:26.587Z,35.50
2018-12-21T04:27:55.921Z,35.60
2018-12-21T04:30:25.400Z,35.50
2018-12-21T04:32:54.772Z,35.60
2018-12-21T04:35:24.198Z,35.60
2018-12-21T04:37:53.395Z,35.60
2018-12-21T04:40:22.707Z,35.60
2018-12-21T04:42:52.107Z,35.70
2018-12-21T04:45:21.388Z,35.60
2018-12-21T04:47:50.608Z,35.60
2018-12-21T04:50:21.000Z,35.50
2018-12-21T04:52:50.356Z,35.50
2018-12-21T04:55:19.662Z,35.50
2018-12-21T04:57:49.023Z,35.60
2018-12-21T05:00:18.253Z,35.70
2018-12-21T05:02:47.486Z,36.00
2018-12-21T05:05:16.786Z,35.90
2018-12-21T05:07:46.152Z,35.90
2018-12-21T05:10:15.455Z,35.90
2018-12-21T05:12:44.767Z,36.00
2018-12-21T05:15:14.082Z,36.00
2018-12-21T05:17:43.564Z,36.00
2018-12-21T05:20:12.864Z,35.90
2018-12-21T05:22:42.231Z,36.10
2018-12-21T05:25:11.440Z,36.20
2018-12-21T05:27:40.746Z,36.20
2018-12-21T05:30:10.546Z,36.00
2018-12-21T05:32:39.911Z,36.10
2018-12-21T05:35:09.351Z,35.80
2018-12-21T05:37:38.691Z,35.80
2018-12-21T05:40:07.989Z,35.70
2018-12-21T05:42:37.289Z,35.70
2018-12-21T05:45:06.970Z,35.80
2018-12-21T05:47:36.236Z,35.80
2018-12-21T05:50:05.539Z,35.80
2018-12-21T05:52:34.954Z,35.90
2018-12-21T05:55:04.311Z,35.80
2018-12-21T05:57:33.714Z,36.10
2018-12-21T06:00:03.121Z,36.20
2018-12-21T06:02:32.533Z,36.00
2018-12-21T06:05:01.958Z,35.80
2018-12-21T06:07:31.291Z,35.60
2018-12-21T06:10:00.755Z,35.50
2018-12-21T06:12:30.007Z,35.40
2018-12-21T06:14:59.304Z,35.50
2018-12-21T06:17:28.692Z,36.50
2018-12-21T06:19:57.960Z,35.60
2018-12-21T06:22:27.268Z,35.60
2018-12-21T06:24:56.606Z,35.70
2018-12-21T06:27:25.928Z,35.80
2018-12-21T06:29:55.402Z,35.80
2018-12-21T06:32:24.638Z,35.90
2018-12-21T06:34:53.988Z,35.60
2018-12-21T06:37:23.213Z,35.80
2018-12-21T06:39:52.593Z,35.50
2018-12-21T06:42:21.939Z,35.80
2018-12-21T06:44:51.368Z,35.70
2018-12-21T06:47:20.871Z,35.90
2018-12-21T06:49:50.972Z,35.80
2018-12-21T06:52:20.810Z,35.70
2018-12-21T06:54:50.181Z,35.70
2018-12-21T06:57:19.552Z,35.80
2018-12-21T06:59:48.919Z,36.00
2018-12-21T07:02:21.087Z,35.80
2018-12-21T07:04:50.351Z,35.90
2018-12-21T07:07:21.627Z,35.90
2018-12-21T07:09:51.120Z,36.10
2018-12-21T07:12:20.568Z,36.10
2018-12-21T07:14:49.832Z,36.20
2018-12-21T07:17:19.353Z,36.20
2018-12-21T07:19:50.199Z,36.30
2018-12-21T07:25:10.333Z,37.10
2018-12-21T07:27:41.099Z,38.20
2018-12-21T07:30:12.502Z,38.70
2018-12-21T07:32:42.054Z,38.80
2018-12-21T07:35:14.266Z,39.10
2018-12-21T07:37:43.904Z,39.30
2018-12-21T07:57:33.330Z,44.10
2018-12-21T08:02:48.481Z,45.10
2018-12-21T08:05:21.782Z,45.70
2018-12-21T08:08:14.967Z,46.00
2018-12-21T08:10:44.235Z,46.30
2018-12-21T08:13:26.232Z,46.60
2018-12-21T08:15:55.558Z,47.00
2018-12-21T08:21:30.350Z,46.90
2018-12-21T08:31:17.416Z,45.30
2018-12-21T08:33:47.032Z,45.20
2018-12-21T08:36:17.232Z,44.60
2018-12-21T08:38:55.633Z,44.10
2018-12-21T08:41:25.241Z,44.00
2018-12-21T08:43:57.173Z,44.00
2018-12-21T08:46:26.649Z,43.40
2018-12-21T08:48:56.969Z,43.30
2018-12-21T08:54:29.806Z,42.80
2018-12-21T08:56:59.525Z,42.80
2018-12-21T08:59:29.984Z,42.70
2018-12-21T09:02:00.081Z,42.60
2018-12-21T09:04:32.363Z,42.50
2018-12-21T09:07:02.084Z,42.90
2018-12-21T09:09:31.566Z,42.30
2018-12-21T09:12:11.866Z,42.00
2018-12-21T09:17:37.469Z,42.20
2018-12-21T09:23:32.840Z,43.40
2018-12-21T09:26:05.763Z,45.30
2018-12-21T09:35:23.045Z,48.30
2018-12-21T09:41:08.743Z,49.40
2018-12-21T09:43:38.468Z,37.40
2018-12-21T09:46:08.287Z,38.90
2018-12-21T09:48:45.669Z,41.20
2018-12-21T09:52:02.604Z,46.40
2018-12-21T09:54:39.377Z,50.30
2018-12-21T09:57:09.901Z,53.00
2018-12-21T09:59:39.815Z,54.00
2018-12-21T10:02:09.358Z,55.20
2018-12-21T10:04:40.455Z,56.40
2018-12-21T10:09:46.739Z,58.40
2018-12-21T10:12:16.561Z,56.80
2018-12-21T10:18:13.790Z,77.00
2018-12-21T10:20:56.358Z,78.10
2018-12-21T10:23:26.227Z,77.00
2018-12-21T10:25:57.199Z,73.80
2018-12-21T10:28:29.094Z,71.40
2018-12-21T10:31:06.464Z,70.50
2018-12-21T10:33:38.107Z,70.70
2018-12-21T10:36:16.174Z,67.20
2018-12-21T10:38:46.815Z,67.20
2018-12-21T10:41:21.177Z,50.00
2018-12-21T10:44:03.886Z,51.00
2018-12-21T10:46:54.513Z,53.90
2018-12-21T10:49:25.511Z,50.70
2018-12-21T10:51:55.155Z,50.80
2018-12-21T11:00:22.244Z,57.20
2018-12-21T11:02:59.924Z,57.30
2018-12-21T11:05:40.233Z,56.80
2018-12-21T11:08:10.412Z,61.10
2018-12-21T11:10:45.825Z,64.20
2018-12-21T11:13:32.317Z,57.90
2018-12-21T11:16:03.684Z,57.60
2018-12-21T11:18:34.074Z,55.80
2018-12-21T11:21:04.301Z,58.30
2018-12-21T11:23:34.069Z,53.20
2018-12-21T11:26:08.289Z,57.00
2018-12-21T11:28:39.414Z,53.10
2018-12-21T11:36:59.403Z,56.30
2018-12-21T11:42:28.194Z,59.10
2018-12-21T11:45:06.158Z,56.30
2018-12-21T11:47:43.740Z,65.00
2018-12-21T11:55:51.123Z,69.00
2018-12-21T12:00:56.712Z,69.10
2018-12-21T12:05:56.822Z,69.10
2018-12-21T12:08:27.087Z,69.50
2018-12-21T12:11:01.206Z,71.50
2018-12-21T12:13:31.468Z,57.60
2018-12-21T12:16:00.913Z,58.60
2018-12-21T12:18:32.929Z,57.30
2018-12-21T12:26:59.570Z,69.90
2018-12-21T12:29:30.748Z,66.90
2018-12-21T12:32:00.790Z,63.50
2018-12-21T12:34:30.548Z,60.20
2018-12-21T12:36:59.948Z,58.30
2018-12-21T12:39:29.997Z,56.20
2018-12-21T12:41:59.593Z,55.40
2018-12-21T12:44:31.234Z,53.70
2018-12-21T12:47:00.763Z,52.40
2018-12-21T12:49:31.842Z,51.90
2018-12-21T12:54:48.910Z,50.30
2018-12-21T12:57:18.630Z,49.20
2018-12-21T12:59:55.986Z,49.20
2018-12-21T13:05:11.318Z,49.20
2018-12-21T13:10:44.329Z,51.60
2018-12-21T13:16:02.883Z,60.70
2018-12-21T13:18:39.507Z,53.40
2018-12-21T13:21:09.696Z,54.20
2018-12-21T13:26:19.384Z,53.30
2018-12-21T13:28:48.850Z,53.80
2018-12-21T13:31:18.491Z,52.70
2018-12-21T13:33:47.749Z,52.50
2018-12-21T13:36:17.983Z,52.60
2018-12-21T13:38:50.169Z,51.60
2018-12-21T13:41:19.757Z,51.70
2018-12-21T13:43:49.082Z,58.70
2018-12-21T13:46:18.631Z,51.20
2018-12-21T13:48:47.992Z,51.40
2018-12-21T13:51:17.411Z,51.00
2018-12-21T13:53:46.700Z,50.20
2018-12-21T13:56:16.344Z,50.30
2018-12-21T13:58:49.382Z,50.20
2018-12-21T14:01:19.350Z,50.80
2018-12-21T14:03:49.514Z,50.70
2018-12-21T14:06:20.644Z,50.80
2018-12-21T14:08:50.071Z,50.20
2018-12-21T14:11:22.014Z,49.00
2018-12-21T14:13:52.640Z,49.30
2018-12-21T14:16:23.507Z,50.30
2018-12-21T14:18:53.328Z,48.40
2018-12-21T14:21:23.522Z,48.80
2018-12-21T14:23:54.559Z,49.70
2018-12-21T14:26:25.036Z,49.70
2018-12-21T14:28:54.486Z,49.40
2018-12-21T14:31:23.921Z,48.20
2018-12-21T14:33:53.301Z,48.00
2018-12-21T14:36:23.007Z,47.60
2018-12-21T14:38:53.023Z,47.20
2018-12-21T14:41:22.452Z,47.60
2018-12-21T14:43:51.881Z,46.50
2018-12-21T14:46:21.258Z,46.10
2018-12-21T14:48:50.741Z,46.00
2018-12-21T14:51:20.044Z,46.30
2018-12-21T14:53:49.346Z,45.90
2018-12-21T14:56:18.873Z,45.00
2018-12-21T14:58:51.972Z,45.00
2018-12-21T15:01:21.446Z,44.10
2018-12-21T15:03:51.217Z,44.60
2018-12-21T15:06:21.311Z,44.30
2018-12-21T15:08:54.663Z,43.90
2018-12-21T15:11:25.749Z,44.00
2018-12-21T15:13:55.118Z,44.00
2018-12-21T15:16:24.615Z,43.80
2018-12-21T15:18:54.053Z,43.80
2018-12-21T15:21:24.120Z,44.00
2018-12-21T15:23:53.436Z,43.10
2018-12-21T15:26:22.991Z,43.40
2018-12-21T15:28:52.455Z,42.80
2018-12-21T15:31:22.174Z,42.90
2018-12-21T15:33:51.720Z,42.00
2018-12-21T15:36:21.225Z,42.70
2018-12-21T15:38:50.556Z,42.40
2018-12-21T15:41:20.033Z,42.20
2018-12-21T15:43:49.287Z,42.50
2018-12-21T15:46:18.644Z,42.10
2018-12-21T15:48:48.875Z,41.90
2018-12-21T15:51:19.957Z,42.20
2018-12-21T15:53:49.299Z,41.90
2018-12-21T15:56:19.964Z,42.10
2018-12-21T15:58:49.311Z,42.40
2018-12-21T16:01:19.073Z,41.50
2018-12-21T16:03:50.506Z,41.50
2018-12-21T16:06:19.915Z,41.80
2018-12-21T16:08:49.225Z,41.60
2018-12-21T16:11:18.451Z,41.50
2018-12-21T16:13:47.762Z,41.40
2018-12-21T16:16:17.062Z,40.70
2018-12-21T16:18:46.364Z,41.10
2018-12-21T16:21:15.741Z,40.90
2018-12-21T16:23:45.109Z,40.70
2018-12-21T16:26:14.498Z,40.40
2018-12-21T16:28:45.023Z,40.30
2018-12-21T16:31:14.303Z,40.30
2018-12-21T16:33:43.633Z,40.20
2018-12-21T16:36:13.044Z,40.10
2018-12-21T16:38:42.338Z,40.00
2018-12-21T16:41:11.649Z,40.20
2018-12-21T16:43:41.072Z,40.40
2018-12-21T16:46:10.459Z,40.40
2018-12-21T16:48:40.447Z,40.20
2018-12-21T16:51:10.207Z,39.50
2018-12-21T16:53:39.743Z,40.20
2018-12-21T16:56:12.621Z,39.70
2018-12-21T16:58:40.776Z,39.90
2018-12-21T17:01:11.912Z,40.00
2018-12-21T17:03:42.296Z,39.90
2018-12-21T17:06:11.769Z,40.70
2018-12-21T17:08:41.431Z,40.00
2018-12-21T17:11:11.294Z,39.90
2018-12-21T17:13:40.666Z,40.00
2018-12-21T17:16:10.059Z,40.10
2018-12-21T17:18:40.235Z,39.90
2018-12-21T17:21:09.557Z,40.00
2018-12-21T17:23:39.028Z,40.00
2018-12-21T17:26:08.359Z,40.10
2018-12-21T17:28:37.840Z,40.10
2018-12-21T17:31:07.127Z,39.80
2018-12-21T17:33:36.530Z,40.00
2018-12-21T17:36:05.866Z,40.00
2018-12-21T17:38:35.216Z,40.00
2018-12-21T17:41:04.809Z,39.90
2018-12-21T17:43:34.687Z,39.90
2018-12-21T17:46:05.164Z,39.90
2018-12-21T17:48:34.801Z,40.00
2018-12-21T17:51:04.661Z,39.70
2018-12-21T17:53:34.315Z,39.90
2018-12-21T17:56:03.924Z,39.80
2018-12-21T17:58:34.512Z,39.60
2018-12-21T18:01:05.215Z,39.50
2018-12-21T18:03:45.118Z,39.50
2018-12-21T18:06:16.154Z,39.50
2018-12-21T18:08:45.536Z,39.50
2018-12-21T18:11:14.857Z,39.50
2018-12-21T18:13:44.296Z,39.40
2018-12-21T18:16:13.701Z,39.30
2018-12-21T18:18:43.115Z,39.40
2018-12-21T18:21:12.508Z,39.10
2018-12-21T18:23:42.463Z,39.20
2018-12-21T18:26:11.937Z,39.10
2018-12-21T18:28:41.494Z,39.40
2018-12-21T18:31:18.246Z,39.80
2018-12-21T18:33:47.604Z,39.30
2018-12-21T18:36:17.045Z,39.20
2018-12-21T18:38:46.414Z,39.20
2018-12-21T18:41:15.741Z,39.10
2018-12-21T18:43:45.121Z,39.20
2018-12-21T18:46:14.547Z,39.00
2018-12-21T18:48:44.132Z,38.90
2018-12-21T18:51:13.455Z,39.00
2018-12-21T18:53:42.831Z,39.10
2018-12-21T18:56:17.384Z,39.30
2018-12-21T18:58:46.817Z,39.10
2018-12-21T19:01:16.293Z,39.50
2018-12-21T19:03:45.624Z,39.50
2018-12-21T19:06:14.988Z,39.20
2018-12-21T19:08:45.400Z,39.50
2018-12-21T19:11:14.830Z,39.50
2018-12-21T19:13:44.099Z,39.50
2018-12-21T19:16:13.428Z,40.10
2018-12-21T19:18:42.922Z,40.30
2018-12-21T19:21:12.211Z,40.80
2018-12-21T19:23:41.543Z,40.80
2018-12-21T19:26:10.812Z,40.90
2018-12-21T19:28:40.147Z,41.00
2018-12-21T19:31:09.513Z,41.20
2018-12-21T19:33:38.951Z,40.70
2018-12-21T19:36:08.424Z,40.70
2018-12-21T19:38:37.762Z,40.90
2018-12-21T19:41:07.175Z,40.90
2018-12-21T19:43:36.669Z,40.70
2018-12-21T19:46:05.997Z,40.70
2018-12-21T19:48:35.411Z,40.90
2018-12-21T19:51:04.668Z,40.60
2018-12-21T19:53:34.149Z,40.70
2018-12-21T19:56:44.851Z,40.90
2018-12-21T19:59:14.328Z,40.80
2018-12-21T20:01:43.660Z,40.50
2018-12-21T20:04:13.056Z,40.70
2018-12-21T20:06:42.453Z,40.90
2018-12-21T20:09:12.052Z,40.40
2018-12-21T20:11:41.455Z,40.60
2018-12-21T20:14:10.986Z,40.70
2018-12-21T20:16:40.363Z,40.90
2018-12-21T20:19:09.662Z,40.60
2018-12-21T20:21:38.963Z,40.80
2018-12-21T20:24:08.266Z,40.80
2018-12-21T20:26:37.769Z,40.90
2018-12-21T20:29:07.181Z,40.90
2018-12-21T20:31:36.588Z,40.70
2018-12-21T20:34:05.895Z,41.10
2018-12-21T20:36:35.370Z,41.10
2018-12-21T20:39:10.217Z,41.10
2018-12-21T20:41:39.535Z,41.10
2018-12-21T20:44:08.906Z,41.20
2018-12-21T20:46:38.304Z,41.20
2018-12-21T20:49:07.636Z,41.60
2018-12-21T20:51:36.930Z,41.60
2018-12-21T20:54:06.235Z,41.70
2018-12-21T20:56:35.513Z,41.80
2018-12-21T20:59:10.848Z,41.80
2018-12-21T21:01:40.157Z,41.90
2018-12-21T21:04:09.446Z,41.70
2018-12-21T21:06:46.636Z,41.90
2018-12-21T21:09:16.283Z,41.90
2018-12-21T21:11:45.656Z,42.20
2018-12-21T21:14:16.532Z,42.20
2018-12-21T21:16:45.895Z,42.20
2018-12-21T21:19:15.118Z,41.80
2018-12-21T21:21:44.559Z,41.90
2018-12-21T21:24:14.235Z,41.90
2018-12-21T21:26:43.519Z,41.50
2018-12-21T21:29:12.835Z,41.60
2018-12-21T21:31:45.278Z,41.80
2018-12-21T21:34:14.587Z,41.90
2018-12-21T21:36:43.950Z,41.80
2018-12-21T21:39:13.320Z,41.60
2018-12-21T21:41:42.668Z,41.70
2018-12-21T21:44:12.180Z,41.80
2018-12-21T21:46:41.503Z,41.50
2018-12-21T21:49:10.889Z,41.60
2018-12-21T21:51:40.388Z,41.90
2018-12-21T21:54:09.811Z,41.60
2018-12-21T21:56:39.148Z,41.60
2018-12-21T21:59:08.511Z,41.40
2018-12-21T22:01:37.929Z,41.30
2018-12-21T22:04:07.215Z,41.50
2018-12-21T22:06:36.598Z,41.70
2018-12-21T22:09:06.843Z,41.40
2018-12-21T22:11:36.204Z,41.30
2018-12-21T22:14:05.523Z,42.00
2018-12-21T22:16:34.870Z,41.60
2018-12-21T22:19:04.271Z,42.30
2018-12-21T22:21:33.585Z,41.70
2018-12-21T22:24:03.037Z,41.80
2018-12-21T22:26:32.472Z,41.40
2018-12-21T22:29:01.926Z,41.90
2018-12-21T22:31:31.223Z,41.90
2018-12-21T22:34:00.564Z,41.90
2018-12-21T22:36:29.898Z,41.60
2018-12-21T22:38:59.251Z,41.60
2018-12-21T22:41:28.624Z,42.40
2018-12-21T22:43:57.950Z,42.10
2018-12-21T22:46:28.294Z,42.00
2018-12-21T22:48:57.649Z,42.00
2018-12-21T22:51:27.060Z,42.00
2018-12-21T22:53:56.314Z,42.00
2018-12-21T22:56:25.635Z,42.00
2018-12-21T22:58:54.947Z,42.00
2018-12-21T23:01:24.509Z,42.00
2018-12-21T23:03:53.872Z,42.00
2018-12-21T23:06:23.260Z,41.80
2018-12-21T23:08:52.622Z,42.00
2018-12-21T23:11:21.910Z,42.20
2018-12-21T23:13:51.313Z,42.50
2018-12-21T23:16:20.599Z,42.50
2018-12-21T23:18:49.946Z,42.40
2018-12-21T23:21:19.273Z,42.00
2018-12-21T23:23:48.574Z,42.40
2018-12-21T23:26:17.932Z,42.40
2018-12-21T23:28:47.507Z,41.90
2018-12-21T23:31:16.815Z,41.90
2018-12-21T23:33:46.130Z,42.00
2018-12-21T23:36:15.419Z,42.40
2018-12-21T23:38:44.713Z,42.20
2018-12-21T23:41:14.098Z,41.90
2018-12-21T23:43:43.548Z,41.80
2018-12-21T23:46:12.871Z,41.90
2018-12-21T23:48:42.188Z,41.90
2018-12-21T23:51:11.494Z,41.90
2018-12-21T23:53:40.832Z,41.70
2018-12-21T23:56:12.056Z,41.90
2018-12-21T23:58:41.460Z,42.60
